sensor_id;sensor_type;location;lat;lon;timestamp;pressure;altitude;pressure_sealevel;temperature;humidity
75549;BME280;64133;56.002;37.208;2023-02-01T00:01:04;97697.14;;;-0.07;85.38
75549;BME280;64133;56.002;37.208;2023-02-01T00:06:05;97682.27;;;-0.10;85.36
75549;BME280;64133;56.002;37.208;2023-02-01T00:11:10;97691.25;;;-0.09;85.35
75549;BME280;64133;56.002;37.208;2023-02-01T00:16:15;97688.11;;;-0.14;85.37
75549;BME280;64133;56.002;37.208;2023-02-01T00:21:20;97691.91;;;-0.12;85.36
75549;BME280;64133;56.002;37.208;2023-02-01T00:26:27;97681.80;;;-0.10;85.48
75549;BME280;64133;56.002;37.208;2023-02-01T00:31:31;97685.80;;;-0.11;85.50
75549;BME280;64133;56.002;37.208;2023-02-01T00:36:35;97694.39;;;-0.11;85.64
75549;BME280;64133;56.002;37.208;2023-02-01T00:41:40;97688.55;;;-0.07;85.83
75549;BME280;64133;56.002;37.208;2023-02-01T00:46:45;97689.84;;;-0.07;85.84
75549;BME280;64133;56.002;37.208;2023-02-01T00:51:49;97689.10;;;-0.09;85.96
75549;BME280;64133;56.002;37.208;2023-02-01T00:56:54;97687.26;;;-0.07;86.03
75549;BME280;64133;56.002;37.208;2023-02-01T01:01:58;97696.56;;;-0.05;86.19
75549;BME280;64133;56.002;37.208;2023-02-01T01:07:03;97696.84;;;-0.02;86.27
75549;BME280;64133;56.002;37.208;2023-02-01T01:12:08;97694.91;;;-0.06;86.42
75549;BME280;64133;56.002;37.208;2023-02-01T01:17:12;97692.67;;;-0.05;86.64
75549;BME280;64133;56.002;37.208;2023-02-01T01:22:17;97700.36;;;-0.03;86.76
75549;BME280;64133;56.002;37.208;2023-02-01T01:27:22;97704.95;;;-0.01;86.83
75549;BME280;64133;56.002;37.208;2023-02-01T01:32:27;97713.63;;;0.05;86.91
75549;BME280;64133;56.002;37.208;2023-02-01T01:37:32;97713.05;;;0.07;86.82
75549;BME280;64133;56.002;37.208;2023-02-01T01:42:39;97708.81;;;0.06;86.83
75549;BME280;64133;56.002;37.208;2023-02-01T01:47:44;97711.23;;;0.02;86.78
75549;BME280;64133;56.002;37.208;2023-02-01T01:52:48;97711.52;;;0.05;86.75
75549;BME280;64133;56.002;37.208;2023-02-01T02:03:11;97704.63;;;0.11;86.68
75549;BME280;64133;56.002;37.208;2023-02-01T02:08:13;97709.94;;;0.02;86.52
75549;BME280;64133;56.002;37.208;2023-02-01T02:13:18;97708.64;;;0.02;86.61
75549;BME280;64133;56.002;37.208;2023-02-01T02:18:25;97707.16;;;0.05;86.59
75549;BME280;64133;56.002;37.208;2023-02-01T02:29:36;97722.99;;;0.01;86.55
75549;BME280;64133;56.002;37.208;2023-02-01T02:34:41;97724.53;;;0.03;86.65
75549;BME280;64133;56.002;37.208;2023-02-01T02:39:48;97722.88;;;0.02;86.67
75549;BME280;64133;56.002;37.208;2023-02-01T02:44:53;97713.11;;;0.00;86.71
75549;BME280;64133;56.002;37.208;2023-02-01T02:50:17;97716.41;;;0.02;86.79
75549;BME280;64133;56.002;37.208;2023-02-01T02:55:55;97720.57;;;0.05;86.88
75549;BME280;64133;56.002;37.208;2023-02-01T03:01:17;97721.59;;;0.02;86.87
75549;BME280;64133;56.002;37.208;2023-02-01T03:06:39;97727.95;;;0.04;86.98
75549;BME280;64133;56.002;37.208;2023-02-01T03:11:44;97731.36;;;0.04;87.06
75549;BME280;64133;56.002;37.208;2023-02-01T03:17:07;97723.52;;;0.06;87.05
75549;BME280;64133;56.002;37.208;2023-02-01T03:22:12;97726.58;;;0.05;87.01
75549;BME280;64133;56.002;37.208;2023-02-01T03:27:17;97725.30;;;-0.02;86.89
75549;BME280;64133;56.002;37.208;2023-02-01T03:32:21;97735.30;;;-0.03;86.93
75549;BME280;64133;56.002;37.208;2023-02-01T03:37:26;97733.18;;;-0.04;86.90
75549;BME280;64133;56.002;37.208;2023-02-01T03:42:33;97720.20;;;-0.16;86.89
75549;BME280;64133;56.002;37.208;2023-02-01T03:47:37;97752.13;;;-0.03;86.85
75549;BME280;64133;56.002;37.208;2023-02-01T03:52:41;97763.11;;;0.01;86.86
75549;BME280;64133;56.002;37.208;2023-02-01T03:57:46;97761.81;;;0.01;86.77
75549;BME280;64133;56.002;37.208;2023-02-01T04:02:50;97765.13;;;0.03;86.77
75549;BME280;64133;56.002;37.208;2023-02-01T04:07:55;97768.89;;;0.04;86.77
75549;BME280;64133;56.002;37.208;2023-02-01T04:12:59;97773.64;;;0.05;86.75
75549;BME280;64133;56.002;37.208;2023-02-01T04:18:04;97778.34;;;0.05;86.69
75549;BME280;64133;56.002;37.208;2023-02-01T04:23:09;97780.66;;;0.03;86.63
75549;BME280;64133;56.002;37.208;2023-02-01T04:28:13;97786.94;;;0.06;86.63
75549;BME280;64133;56.002;37.208;2023-02-01T04:33:18;97786.58;;;0.05;86.58
75549;BME280;64133;56.002;37.208;2023-02-01T04:38:23;97794.42;;;0.03;86.59
75549;BME280;64133;56.002;37.208;2023-02-01T04:43:28;97794.23;;;0.06;86.57
75549;BME280;64133;56.002;37.208;2023-02-01T04:48:32;97796.35;;;0.07;86.51
75549;BME280;64133;56.002;37.208;2023-02-01T04:53:37;97799.95;;;0.04;86.44
75549;BME280;64133;56.002;37.208;2023-02-01T04:58:42;97805.24;;;0.03;86.42
75549;BME280;64133;56.002;37.208;2023-02-01T05:03:46;97809.23;;;0.01;86.41
75549;BME280;64133;56.002;37.208;2023-02-01T05:08:51;97811.25;;;0.03;86.48
75549;BME280;64133;56.002;37.208;2023-02-01T05:13:56;97817.64;;;0.05;86.49
75549;BME280;64133;56.002;37.208;2023-02-01T05:19:00;97822.53;;;0.02;86.46
75549;BME280;64133;56.002;37.208;2023-02-01T05:24:07;97834.30;;;0.01;86.44
75549;BME280;64133;56.002;37.208;2023-02-01T05:29:14;97829.48;;;0.02;86.46
75549;BME280;64133;56.002;37.208;2023-02-01T05:34:18;97831.02;;;0.04;86.44
75549;BME280;64133;56.002;37.208;2023-02-01T05:39:23;97832.17;;;0.00;86.37
75549;BME280;64133;56.002;37.208;2023-02-01T05:44:28;97838.17;;;0.01;86.40
75549;BME280;64133;56.002;37.208;2023-02-01T05:49:32;97839.83;;;0.02;86.40
75549;BME280;64133;56.002;37.208;2023-02-01T05:54:37;97835.31;;;-0.02;86.39
75549;BME280;64133;56.002;37.208;2023-02-01T05:59:42;97839.53;;;0.06;86.46
75549;BME280;64133;56.002;37.208;2023-02-01T06:04:46;97838.05;;;0.09;86.43
75549;BME280;64133;56.002;37.208;2023-02-01T06:09:51;97844.13;;;0.15;86.33
75549;BME280;64133;56.002;37.208;2023-02-01T06:14:56;97852.24;;;0.16;86.21
75549;BME280;64133;56.002;37.208;2023-02-01T06:20:00;97840.64;;;0.09;86.19
75549;BME280;64133;56.002;37.208;2023-02-01T06:25:06;97860.72;;;0.25;86.11
75549;BME280;64133;56.002;37.208;2023-02-01T06:30:12;97861.80;;;0.36;86.06
75549;BME280;64133;56.002;37.208;2023-02-01T06:35:17;97866.10;;;0.42;85.94
75549;BME280;64133;56.002;37.208;2023-02-01T06:40:22;97873.33;;;0.44;85.78
75549;BME280;64133;56.002;37.208;2023-02-01T06:45:27;97879.52;;;0.42;85.64
75549;BME280;64133;56.002;37.208;2023-02-01T06:50:31;97878.42;;;0.39;85.53
75549;BME280;64133;56.002;37.208;2023-02-01T06:55:36;97882.30;;;0.39;85.50
75549;BME280;64133;56.002;37.208;2023-02-01T07:00:41;97883.52;;;0.40;85.53
75549;BME280;64133;56.002;37.208;2023-02-01T07:05:45;97883.05;;;0.41;85.51
75549;BME280;64133;56.002;37.208;2023-02-01T07:10:50;97887.48;;;0.39;85.40
75549;BME280;64133;56.002;37.208;2023-02-01T07:15:56;97893.12;;;0.38;85.42
75549;BME280;64133;56.002;37.208;2023-02-01T07:20:59;97890.54;;;0.38;85.42
75549;BME280;64133;56.002;37.208;2023-02-01T07:26:05;97889.24;;;0.38;85.40
75549;BME280;64133;56.002;37.208;2023-02-01T07:31:09;97893.30;;;0.42;85.45
75549;BME280;64133;56.002;37.208;2023-02-01T07:36:14;97899.78;;;0.42;85.44
75549;BME280;64133;56.002;37.208;2023-02-01T07:41:18;97894.36;;;0.33;85.34
75549;BME280;64133;56.002;37.208;2023-02-01T07:46:23;97900.24;;;0.42;85.67
75549;BME280;64133;56.002;37.208;2023-02-01T07:51:27;97887.95;;;0.38;85.58
75549;BME280;64133;56.002;37.208;2023-02-01T07:56:32;97883.70;;;0.37;85.60
75549;BME280;64133;56.002;37.208;2023-02-01T08:01:37;97887.78;;;0.34;85.39
75549;BME280;64133;56.002;37.208;2023-02-01T08:06:41;97893.72;;;0.29;85.55
75549;BME280;64133;56.002;37.208;2023-02-01T08:11:46;97884.34;;;0.41;85.74
75549;BME280;64133;56.002;37.208;2023-02-01T08:16:51;97882.56;;;0.48;85.67
75549;BME280;64133;56.002;37.208;2023-02-01T08:21:55;97888.16;;;0.55;85.40
75549;BME280;64133;56.002;37.208;2023-02-01T08:27:01;97887.22;;;0.56;85.35
75549;BME280;64133;56.002;37.208;2023-02-01T08:32:06;97891.46;;;0.44;85.21
75549;BME280;64133;56.002;37.208;2023-02-01T08:37:10;97891.28;;;0.40;85.03
75549;BME280;64133;56.002;37.208;2023-02-01T08:42:15;97894.89;;;0.38;85.24
75549;BME280;64133;56.002;37.208;2023-02-01T08:47:37;97891.53;;;0.43;85.24
75549;BME280;64133;56.002;37.208;2023-02-01T08:52:42;97825.41;;;0.05;85.05
75549;BME280;64133;56.002;37.208;2023-02-01T08:57:47;97879.93;;;0.36;85.03
75549;BME280;64133;56.002;37.208;2023-02-01T09:02:52;97883.41;;;0.42;85.08
75549;BME280;64133;56.002;37.208;2023-02-01T09:07:56;97875.45;;;0.45;85.03
75549;BME280;64133;56.002;37.208;2023-02-01T09:13:01;97877.38;;;0.48;84.88
75549;BME280;64133;56.002;37.208;2023-02-01T09:18:06;97876.39;;;0.44;84.73
75549;BME280;64133;56.002;37.208;2023-02-01T09:23:10;97877.30;;;0.63;84.55
75549;BME280;64133;56.002;37.208;2023-02-01T09:28:15;97885.44;;;0.64;84.13
75549;BME280;64133;56.002;37.208;2023-02-01T09:33:20;97881.30;;;0.61;83.95
75549;BME280;64133;56.002;37.208;2023-02-01T09:38:25;97876.80;;;0.70;83.84
75549;BME280;64133;56.002;37.208;2023-02-01T09:43:35;97883.12;;;0.66;83.75
75549;BME280;64133;56.002;37.208;2023-02-01T09:48:40;97887.17;;;0.70;83.36
75549;BME280;64133;56.002;37.208;2023-02-01T09:53:46;97873.83;;;1.02;83.20
75549;BME280;64133;56.002;37.208;2023-02-01T09:58:51;97872.98;;;0.89;82.37
75549;BME280;64133;56.002;37.208;2023-02-01T10:03:56;97867.63;;;0.72;82.40
75549;BME280;64133;56.002;37.208;2023-02-01T10:09:09;97868.97;;;0.78;82.41
75549;BME280;64133;56.002;37.208;2023-02-01T10:14:13;97866.60;;;1.00;81.99
75549;BME280;64133;56.002;37.208;2023-02-01T10:19:31;97869.58;;;1.01;81.45
75549;BME280;64133;56.002;37.208;2023-02-01T10:24:45;97863.75;;;0.85;81.90
75549;BME280;64133;56.002;37.208;2023-02-01T10:29:51;97869.19;;;1.00;81.49
75549;BME280;64133;56.002;37.208;2023-02-01T10:34:57;97873.95;;;0.81;81.47
75549;BME280;64133;56.002;37.208;2023-02-01T10:40:02;97866.11;;;0.62;81.50
75549;BME280;64133;56.002;37.208;2023-02-01T10:45:16;97869.08;;;0.76;81.84
75549;BME280;64133;56.002;37.208;2023-02-01T10:50:25;97865.73;;;0.94;81.67
75549;BME280;64133;56.002;37.208;2023-02-01T10:55:39;97854.34;;;1.53;81.02
75549;BME280;64133;56.002;37.208;2023-02-01T11:00:48;97852.14;;;1.60;79.56
75549;BME280;64133;56.002;37.208;2023-02-01T11:05:51;97859.64;;;1.39;79.33
75549;BME280;64133;56.002;37.208;2023-02-01T11:11:00;97858.47;;;1.24;79.92
75549;BME280;64133;56.002;37.208;2023-02-01T11:16:05;97852.10;;;1.10;79.74
75549;BME280;64133;56.002;37.208;2023-02-01T11:21:10;97864.73;;;0.77;80.20
75549;BME280;64133;56.002;37.208;2023-02-01T11:26:19;97859.73;;;0.73;80.63
75549;BME280;64133;56.002;37.208;2023-02-01T11:31:19;97858.12;;;0.53;80.92
75549;BME280;64133;56.002;37.208;2023-02-01T11:36:26;97855.63;;;0.64;81.17
75549;BME280;64133;56.002;37.208;2023-02-01T11:41:30;97853.38;;;0.72;81.00
75549;BME280;64133;56.002;37.208;2023-02-01T11:46:35;97859.44;;;0.65;80.85
75549;BME280;64133;56.002;37.208;2023-02-01T11:51:46;97866.19;;;0.61;80.84
75549;BME280;64133;56.002;37.208;2023-02-01T11:56:51;97866.63;;;0.47;80.83
75549;BME280;64133;56.002;37.208;2023-02-01T12:02:01;97874.22;;;0.70;80.81
75549;BME280;64133;56.002;37.208;2023-02-01T12:07:05;97874.41;;;0.67;80.39
75549;BME280;64133;56.002;37.208;2023-02-01T12:12:14;97875.26;;;0.48;80.42
75549;BME280;64133;56.002;37.208;2023-02-01T12:17:53;97878.79;;;0.60;80.50
75549;BME280;64133;56.002;37.208;2023-02-01T12:23:01;97886.80;;;0.49;80.27
75549;BME280;64133;56.002;37.208;2023-02-01T12:28:19;97891.94;;;0.37;80.32
75549;BME280;64133;56.002;37.208;2023-02-01T12:33:27;97892.05;;;0.35;80.38
75549;BME280;64133;56.002;37.208;2023-02-01T12:38:55;97891.05;;;0.31;80.48
75549;BME280;64133;56.002;37.208;2023-02-01T12:43:59;97897.53;;;0.31;80.22
75549;BME280;64133;56.002;37.208;2023-02-01T12:49:04;97896.91;;;0.20;80.40
75549;BME280;64133;56.002;37.208;2023-02-01T12:54:12;97901.48;;;0.09;80.48
75549;BME280;64133;56.002;37.208;2023-02-01T12:59:19;97908.60;;;0.06;80.59
75549;BME280;64133;56.002;37.208;2023-02-01T13:04:24;97900.95;;;-0.03;80.64
75549;BME280;64133;56.002;37.208;2023-02-01T13:09:29;97906.48;;;-0.02;80.73
75549;BME280;64133;56.002;37.208;2023-02-01T13:14:33;97909.25;;;-0.05;80.76
75549;BME280;64133;56.002;37.208;2023-02-01T13:19:42;97908.89;;;-0.06;80.83
75549;BME280;64133;56.002;37.208;2023-02-01T13:24:46;97913.42;;;-0.10;80.92
75549;BME280;64133;56.002;37.208;2023-02-01T13:29:53;97912.23;;;-0.18;81.17
75549;BME280;64133;56.002;37.208;2023-02-01T13:40:44;97915.11;;;-0.16;81.49
75549;BME280;64133;56.002;37.208;2023-02-01T13:45:49;97909.86;;;-0.21;81.59
75549;BME280;64133;56.002;37.208;2023-02-01T13:50:55;97906.70;;;-0.19;81.88
75549;BME280;64133;56.002;37.208;2023-02-01T13:56:02;97898.76;;;-0.16;81.95
75549;BME280;64133;56.002;37.208;2023-02-01T14:06:54;97902.17;;;-0.16;82.14
75549;BME280;64133;56.002;37.208;2023-02-01T14:12:04;97900.77;;;-0.14;82.25
75549;BME280;64133;56.002;37.208;2023-02-01T14:17:40;97907.99;;;-0.12;82.22
75549;BME280;64133;56.002;37.208;2023-02-01T14:22:45;97916.77;;;-0.15;82.21
75549;BME280;64133;56.002;37.208;2023-02-01T14:27:50;97911.77;;;-0.11;82.25
75549;BME280;64133;56.002;37.208;2023-02-01T14:32:54;97919.74;;;-0.21;82.21
75549;BME280;64133;56.002;37.208;2023-02-01T14:38:00;97915.03;;;-0.21;82.53
75549;BME280;64133;56.002;37.208;2023-02-01T14:43:07;97919.28;;;-0.20;82.59
75549;BME280;64133;56.002;37.208;2023-02-01T14:48:46;97924.27;;;-0.17;82.65
75549;BME280;64133;56.002;37.208;2023-02-01T14:53:51;97927.41;;;-0.19;82.51
75549;BME280;64133;56.002;37.208;2023-02-01T14:58:57;97930.74;;;-0.17;82.46
75549;BME280;64133;56.002;37.208;2023-02-01T15:04:03;97931.93;;;-0.16;82.38
75549;BME280;64133;56.002;37.208;2023-02-01T15:09:13;97934.23;;;-0.18;82.18
75549;BME280;64133;56.002;37.208;2023-02-01T15:14:16;97942.02;;;-0.26;82.02
75549;BME280;64133;56.002;37.208;2023-02-01T15:19:22;97938.70;;;-0.35;82.12
75549;BME280;64133;56.002;37.208;2023-02-01T15:24:26;97943.87;;;-0.42;82.38
75549;BME280;64133;56.002;37.208;2023-02-01T15:29:31;97951.61;;;-0.49;82.73
75549;BME280;64133;56.002;37.208;2023-02-01T15:34:49;97948.47;;;-0.54;82.91
75549;BME280;64133;56.002;37.208;2023-02-01T15:40:18;97949.94;;;-0.57;82.99
75549;BME280;64133;56.002;37.208;2023-02-01T15:45:20;97959.28;;;-0.55;82.98
75549;BME280;64133;56.002;37.208;2023-02-01T15:50:24;97951.61;;;-0.49;83.10
75549;BME280;64133;56.002;37.208;2023-02-01T15:55:33;97955.42;;;-0.47;82.96
75549;BME280;64133;56.002;37.208;2023-02-01T16:00:44;97965.09;;;-0.44;82.87
75549;BME280;64133;56.002;37.208;2023-02-01T16:05:42;97957.80;;;-0.44;82.61
75549;BME280;64133;56.002;37.208;2023-02-01T16:10:46;97955.31;;;-0.46;82.38
75549;BME280;64133;56.002;37.208;2023-02-01T16:21:09;97958.64;;;-0.51;82.27
75549;BME280;64133;56.002;37.208;2023-02-01T16:26:13;97967.42;;;-0.46;82.08
75549;BME280;64133;56.002;37.208;2023-02-01T16:31:24;97975.91;;;-0.44;81.90
75549;BME280;64133;56.002;37.208;2023-02-01T16:36:28;97977.58;;;-0.51;81.87
75549;BME280;64133;56.002;37.208;2023-02-01T16:41:32;97979.13;;;-0.48;81.91
75549;BME280;64133;56.002;37.208;2023-02-01T16:46:38;97979.51;;;-0.54;81.92
75549;BME280;64133;56.002;37.208;2023-02-01T16:51:42;97981.33;;;-0.78;82.37
75549;BME280;64133;56.002;37.208;2023-02-01T16:56:47;97978.72;;;-0.85;83.08
75549;BME280;64133;56.002;37.208;2023-02-01T17:01:51;97980.94;;;-0.86;83.56
75549;BME280;64133;56.002;37.208;2023-02-01T17:06:56;97984.52;;;-0.88;83.88
75549;BME280;64133;56.002;37.208;2023-02-01T17:12:01;97985.08;;;-0.83;84.10
75549;BME280;64133;56.002;37.208;2023-02-01T17:17:07;97982.43;;;-0.82;84.01
75549;BME280;64133;56.002;37.208;2023-02-01T17:22:11;97985.94;;;-0.76;84.05
75549;BME280;64133;56.002;37.208;2023-02-01T17:27:16;97980.59;;;-0.72;83.77
75549;BME280;64133;56.002;37.208;2023-02-01T17:32:21;97979.86;;;-0.67;83.51
75549;BME280;64133;56.002;37.208;2023-02-01T17:37:26;97985.23;;;-0.63;83.17
75549;BME280;64133;56.002;37.208;2023-02-01T17:42:30;97964.42;;;-0.76;82.86
75549;BME280;64133;56.002;37.208;2023-02-01T17:47:34;97978.30;;;-0.63;82.55
75549;BME280;64133;56.002;37.208;2023-02-01T17:52:39;97977.09;;;-0.57;82.37
75549;BME280;64133;56.002;37.208;2023-02-01T17:57:44;97984.78;;;-0.56;82.07
75549;BME280;64133;56.002;37.208;2023-02-01T18:02:48;97989.66;;;-0.58;81.87
75549;BME280;64133;56.002;37.208;2023-02-01T18:07:53;97988.94;;;-0.60;81.76
75549;BME280;64133;56.002;37.208;2023-02-01T18:12:58;97987.34;;;-0.63;81.60
75549;BME280;64133;56.002;37.208;2023-02-01T18:18:03;97992.25;;;-0.58;81.44
75549;BME280;64133;56.002;37.208;2023-02-01T18:23:17;97984.67;;;-0.68;81.40
75549;BME280;64133;56.002;37.208;2023-02-01T18:28:21;97981.16;;;-0.67;81.50
75549;BME280;64133;56.002;37.208;2023-02-01T18:33:26;97966.64;;;-0.70;81.56
75549;BME280;64133;56.002;37.208;2023-02-01T18:38:30;97976.26;;;-0.72;81.51
75549;BME280;64133;56.002;37.208;2023-02-01T18:43:35;97975.79;;;-0.71;81.51
75549;BME280;64133;56.002;37.208;2023-02-01T18:48:40;97984.86;;;-0.64;81.49
75549;BME280;64133;56.002;37.208;2023-02-01T18:53:44;97984.03;;;-0.65;81.37
75549;BME280;64133;56.002;37.208;2023-02-01T18:58:49;97981.52;;;-0.66;81.30
75549;BME280;64133;56.002;37.208;2023-02-01T19:03:54;97984.20;;;-0.68;81.23
75549;BME280;64133;56.002;37.208;2023-02-01T19:08:58;97991.30;;;-0.71;81.21
75549;BME280;64133;56.002;37.208;2023-02-01T19:14:03;97987.89;;;-0.72;81.18
75549;BME280;64133;56.002;37.208;2023-02-01T19:19:08;97994.98;;;-0.76;81.17
75549;BME280;64133;56.002;37.208;2023-02-01T19:24:12;97994.06;;;-0.82;81.25
75549;BME280;64133;56.002;37.208;2023-02-01T19:29:18;97990.81;;;-0.85;81.40
75549;BME280;64133;56.002;37.208;2023-02-01T19:34:23;97994.69;;;-0.85;81.53
75549;BME280;64133;56.002;37.208;2023-02-01T19:39:27;97991.62;;;-0.92;81.58
75549;BME280;64133;56.002;37.208;2023-02-01T19:44:32;97990.95;;;-1.03;81.96
75549;BME280;64133;56.002;37.208;2023-02-01T19:49:37;97993.17;;;-1.04;82.14
75549;BME280;64133;56.002;37.208;2023-02-01T19:54:41;97997.52;;;-1.04;82.62
75549;BME280;64133;56.002;37.208;2023-02-01T19:59:46;97990.02;;;-1.02;82.77
75549;BME280;64133;56.002;37.208;2023-02-01T20:04:51;97992.71;;;-1.03;82.81
75549;BME280;64133;56.002;37.208;2023-02-01T20:09:55;98003.58;;;-1.05;82.99
75549;BME280;64133;56.002;37.208;2023-02-01T20:15:00;98000.92;;;-1.04;83.07
75549;BME280;64133;56.002;37.208;2023-02-01T20:20:06;98003.84;;;-1.10;83.24
75549;BME280;64133;56.002;37.208;2023-02-01T20:25:11;98000.48;;;-1.19;83.58
75549;BME280;64133;56.002;37.208;2023-02-01T20:30:16;98006.31;;;-1.15;83.93
75549;BME280;64133;56.002;37.208;2023-02-01T20:35:20;98013.51;;;-1.13;84.04
75549;BME280;64133;56.002;37.208;2023-02-01T20:40:25;98010.76;;;-1.10;84.29
75549;BME280;64133;56.002;37.208;2023-02-01T20:45:30;98011.32;;;-1.12;84.33
75549;BME280;64133;56.002;37.208;2023-02-01T20:50:35;98010.76;;;-1.10;84.37
75549;BME280;64133;56.002;37.208;2023-02-01T20:55:39;98015.73;;;-1.14;84.52
75549;BME280;64133;56.002;37.208;2023-02-01T21:00:44;98013.34;;;-1.17;84.49
75549;BME280;64133;56.002;37.208;2023-02-01T21:05:51;98014.86;;;-1.22;84.53
75549;BME280;64133;56.002;37.208;2023-02-01T21:16:11;98008.60;;;-1.18;84.64
75549;BME280;64133;56.002;37.208;2023-02-01T21:21:15;98008.90;;;-1.15;84.85
75549;BME280;64133;56.002;37.208;2023-02-01T21:26:22;98007.70;;;-1.17;84.78
75549;BME280;64133;56.002;37.208;2023-02-01T21:31:25;98008.07;;;-1.16;84.74
75549;BME280;64133;56.002;37.208;2023-02-01T21:36:29;98005.59;;;-1.17;84.91
75549;BME280;64133;56.002;37.208;2023-02-01T21:41:38;98008.48;;;-1.08;85.08
75549;BME280;64133;56.002;37.208;2023-02-01T21:47:00;98003.67;;;-1.07;85.01
75549;BME280;64133;56.002;37.208;2023-02-01T21:52:04;98011.72;;;-1.04;85.11
75549;BME280;64133;56.002;37.208;2023-02-01T21:57:09;98004.97;;;-1.07;85.11
75549;BME280;64133;56.002;37.208;2023-02-01T22:02:15;98003.11;;;-1.05;85.12
75549;BME280;64133;56.002;37.208;2023-02-01T22:07:19;98009.77;;;-1.08;85.24
75549;BME280;64133;56.002;37.208;2023-02-01T22:12:24;98003.47;;;-1.11;85.38
75549;BME280;64133;56.002;37.208;2023-02-01T22:17:29;97970.20;;;-1.24;85.43
75549;BME280;64133;56.002;37.208;2023-02-01T22:22:34;98008.41;;;-0.99;85.53
75549;BME280;64133;56.002;37.208;2023-02-01T22:27:39;98003.97;;;-1.04;85.41
75549;BME280;64133;56.002;37.208;2023-02-01T22:32:44;97999.80;;;-1.07;85.49
75549;BME280;64133;56.002;37.208;2023-02-01T22:37:48;97994.83;;;-1.03;85.46
75549;BME280;64133;56.002;37.208;2023-02-01T22:42:53;97992.41;;;-1.06;85.55
75549;BME280;64133;56.002;37.208;2023-02-01T22:47:58;97995.86;;;-0.98;85.69
75549;BME280;64133;56.002;37.208;2023-02-01T22:53:02;97991.25;;;-1.00;85.48
75549;BME280;64133;56.002;37.208;2023-02-01T22:58:07;97995.00;;;-1.06;85.61
75549;BME280;64133;56.002;37.208;2023-02-01T23:03:12;97990.39;;;-1.08;85.67
75549;BME280;64133;56.002;37.208;2023-02-01T23:08:16;97995.45;;;-1.06;85.77
75549;BME280;64133;56.002;37.208;2023-02-01T23:13:21;97992.51;;;-1.07;85.78
75549;BME280;64133;56.002;37.208;2023-02-01T23:18:26;97997.12;;;-1.05;85.73
75549;BME280;64133;56.002;37.208;2023-02-01T23:23:30;97987.80;;;-1.08;85.81
75549;BME280;64133;56.002;37.208;2023-02-01T23:28:35;97987.34;;;-1.07;85.81
75549;BME280;64133;56.002;37.208;2023-02-01T23:33:40;98000.53;;;-1.05;85.72
75549;BME280;64133;56.002;37.208;2023-02-01T23:38:45;97987.61;;;-1.12;85.65
75549;BME280;64133;56.002;37.208;2023-02-01T23:43:49;97990.95;;;-1.03;85.72
75549;BME280;64133;56.002;37.208;2023-02-01T23:49:04;97988.90;;;-1.05;85.54
75549;BME280;64133;56.002;37.208;2023-02-01T23:54:09;98001.19;;;-1.08;85.49
75549;BME280;64133;56.002;37.208;2023-02-01T23:59:13;97987.87;;;-1.16;85.39
